sensor_id;sensor_type;location;lat;lon;timestamp;temperature;humidity
58809;DHT22;44579;51.672;7.834;2023-02-23T00:00:13;10.40;95.10
58809;DHT22;44579;51.672;7.834;2023-02-23T00:02:47;10.40;95.10
58809;DHT22;44579;51.672;7.834;2023-02-23T00:05:15;10.40;95.10
58809;DHT22;44579;51.672;7.834;2023-02-23T00:07:43;10.50;95.10
58809;DHT22;44579;51.672;7.834;2023-02-23T00:10:11;10.50;95.20
58809;DHT22;44579;51.672;7.834;2023-02-23T00:12:39;10.40;95.10
58809;DHT22;44579;51.672;7.834;2023-02-23T00:15:07;10.40;95.10
58809;DHT22;44579;51.672;7.834;2023-02-23T00:17:34;10.40;95.10
58809;DHT22;44579;51.672;7.834;2023-02-23T00:20:08;10.40;95.10
58809;DHT22;44579;51.672;7.834;2023-02-23T00:22:38;10.40;95.10
58809;DHT22;44579;51.672;7.834;2023-02-23T00:25:09;10.40;95.20
58809;DHT22;44579;51.672;7.834;2023-02-23T00:27:37;10.40;95.10
58809;DHT22;44579;51.672;7.834;2023-02-23T00:30:10;10.40;95.20
58809;DHT22;44579;51.672;7.834;2023-02-23T00:32:38;10.40;95.20
58809;DHT22;44579;51.672;7.834;2023-02-23T00:35:05;10.40;95.20
58809;DHT22;44579;51.672;7.834;2023-02-23T00:37:37;10.40;95.20
58809;DHT22;44579;51.672;7.834;2023-02-23T00:40:03;10.40;95.20
58809;DHT22;44579;51.672;7.834;2023-02-23T00:42:50;10.40;95.20
58809;DHT22;44579;51.672;7.834;2023-02-23T00:45:18;10.40;95.20
58809;DHT22;44579;51.672;7.834;2023-02-23T00:47:46;10.40;95.10
58809;DHT22;44579;51.672;7.834;2023-02-23T00:50:15;10.40;95.20
58809;DHT22;44579;51.672;7.834;2023-02-23T00:52:42;10.40;95.10
58809;DHT22;44579;51.672;7.834;2023-02-23T00:55:10;10.40;95.10
58809;DHT22;44579;51.672;7.834;2023-02-23T00:57:38;10.40;95.10
58809;DHT22;44579;51.672;7.834;2023-02-23T01:00:06;10.40;95.10
58809;DHT22;44579;51.672;7.834;2023-02-23T01:02:53;10.40;95.10
58809;DHT22;44579;51.672;7.834;2023-02-23T01:05:20;10.40;95.10
58809;DHT22;44579;51.672;7.834;2023-02-23T01:07:47;10.40;95.10
58809;DHT22;44579;51.672;7.834;2023-02-23T01:10:15;10.40;95.10
58809;DHT22;44579;51.672;7.834;2023-02-23T01:12:47;10.40;95.10
58809;DHT22;44579;51.672;7.834;2023-02-23T01:15:15;10.40;95.10
58809;DHT22;44579;51.672;7.834;2023-02-23T01:17:42;10.40;95.10
58809;DHT22;44579;51.672;7.834;2023-02-23T01:20:13;10.40;95.10
58809;DHT22;44579;51.672;7.834;2023-02-23T01:22:47;10.40;95.10
58809;DHT22;44579;51.672;7.834;2023-02-23T01:25:15;10.40;95.10
58809;DHT22;44579;51.672;7.834;2023-02-23T01:27:42;10.40;95.10
58809;DHT22;44579;51.672;7.834;2023-02-23T01:30:12;10.40;95.10
58809;DHT22;44579;51.672;7.834;2023-02-23T01:32:42;10.40;95.10
58809;DHT22;44579;51.672;7.834;2023-02-23T01:35:09;10.40;95.10
58809;DHT22;44579;51.672;7.834;2023-02-23T01:37:37;10.40;95.10
58809;DHT22;44579;51.672;7.834;2023-02-23T01:40:14;10.40;95.10
58809;DHT22;44579;51.672;7.834;2023-02-23T01:42:42;10.40;95.10
58809;DHT22;44579;51.672;7.834;2023-02-23T01:45:18;10.40;95.10
58809;DHT22;44579;51.672;7.834;2023-02-23T01:47:47;10.30;95.10
58809;DHT22;44579;51.672;7.834;2023-02-23T01:50:14;10.30;95.10
58809;DHT22;44579;51.672;7.834;2023-02-23T01:52:42;10.30;95.10
58809;DHT22;44579;51.672;7.834;2023-02-23T01:55:11;10.30;95.10
58809;DHT22;44579;51.672;7.834;2023-02-23T01:57:39;10.40;95.20
58809;DHT22;44579;51.672;7.834;2023-02-23T02:00:07;10.40;95.10
58809;DHT22;44579;51.672;7.834;2023-02-23T02:02:41;10.30;95.10
58809;DHT22;44579;51.672;7.834;2023-02-23T02:05:08;10.40;95.10
58809;DHT22;44579;51.672;7.834;2023-02-23T02:07:41;10.30;95.10
58809;DHT22;44579;51.672;7.834;2023-02-23T02:10:10;10.30;95.10
58809;DHT22;44579;51.672;7.834;2023-02-23T02:12:38;10.30;95.10
58809;DHT22;44579;51.672;7.834;2023-02-23T02:15:05;10.30;95.10
58809;DHT22;44579;51.672;7.834;2023-02-23T02:17:35;10.30;95.10
58809;DHT22;44579;51.672;7.834;2023-02-23T02:25:14;10.30;95.10
58809;DHT22;44579;51.672;7.834;2023-02-23T02:30:38;10.30;95.20
58809;DHT22;44579;51.672;7.834;2023-02-23T02:38:25;10.30;95.10
58809;DHT22;44579;51.672;7.834;2023-02-23T02:44:26;10.20;95.10
58809;DHT22;44579;51.672;7.834;2023-02-23T02:46:26;10.20;95.10
58809;DHT22;44579;51.672;7.834;2023-02-23T02:49:05;10.20;95.10
58809;DHT22;44579;51.672;7.834;2023-02-23T02:54:22;10.20;95.10
58809;DHT22;44579;51.672;7.834;2023-02-23T02:56:51;10.20;95.10
58809;DHT22;44579;51.672;7.834;2023-02-23T02:59:25;10.20;95.10
58809;DHT22;44579;51.672;7.834;2023-02-23T03:02:15;10.20;95.10
58809;DHT22;44579;51.672;7.834;2023-02-23T03:05:06;10.20;95.00
58809;DHT22;44579;51.672;7.834;2023-02-23T03:10:54;10.20;95.00
58809;DHT22;44579;51.672;7.834;2023-02-23T03:16:38;10.20;95.00
58809;DHT22;44579;51.672;7.834;2023-02-23T03:19:33;10.20;95.00
58809;DHT22;44579;51.672;7.834;2023-02-23T03:22:23;10.20;95.10
58809;DHT22;44579;51.672;7.834;2023-02-23T03:25:12;10.20;95.10
58809;DHT22;44579;51.672;7.834;2023-02-23T03:28:09;10.20;95.00
58809;DHT22;44579;51.672;7.834;2023-02-23T03:36:35;10.20;95.00
58809;DHT22;44579;51.672;7.834;2023-02-23T03:39:45;10.20;95.00
58809;DHT22;44579;51.672;7.834;2023-02-23T03:42:30;10.20;95.00
58809;DHT22;44579;51.672;7.834;2023-02-23T03:45:18;10.20;95.10
58809;DHT22;44579;51.672;7.834;2023-02-23T03:48:04;10.20;95.10
58809;DHT22;44579;51.672;7.834;2023-02-23T03:50:52;10.20;95.10
58809;DHT22;44579;51.672;7.834;2023-02-23T03:53:46;10.20;95.10
58809;DHT22;44579;51.672;7.834;2023-02-23T03:56:32;10.10;95.00
58809;DHT22;44579;51.672;7.834;2023-02-23T03:59:19;10.10;95.00
58809;DHT22;44579;51.672;7.834;2023-02-23T04:02:07;10.10;95.00
58809;DHT22;44579;51.672;7.834;2023-02-23T04:04:53;10.20;95.10
58809;DHT22;44579;51.672;7.834;2023-02-23T04:07:38;10.10;95.00
58809;DHT22;44579;51.672;7.834;2023-02-23T04:10:25;10.20;95.00
58809;DHT22;44579;51.672;7.834;2023-02-23T04:13:13;10.20;95.00
58809;DHT22;44579;51.672;7.834;2023-02-23T04:15:46;10.10;95.00
58809;DHT22;44579;51.672;7.834;2023-02-23T04:18:22;10.20;94.90
58809;DHT22;44579;51.672;7.834;2023-02-23T04:20:50;10.20;94.90
58809;DHT22;44579;51.672;7.834;2023-02-23T04:23:17;10.20;94.90
58809;DHT22;44579;51.672;7.834;2023-02-23T04:25:44;10.20;94.90
58809;DHT22;44579;51.672;7.834;2023-02-23T04:28:10;10.20;94.90
58809;DHT22;44579;51.672;7.834;2023-02-23T04:30:37;10.20;94.90
58809;DHT22;44579;51.672;7.834;2023-02-23T04:33:05;10.20;95.00
58809;DHT22;44579;51.672;7.834;2023-02-23T04:35:31;10.10;95.00
58809;DHT22;44579;51.672;7.834;2023-02-23T04:37:58;10.10;95.00
58809;DHT22;44579;51.672;7.834;2023-02-23T04:40:25;10.10;94.90
58809;DHT22;44579;51.672;7.834;2023-02-23T04:42:52;10.10;94.90
58809;DHT22;44579;51.672;7.834;2023-02-23T04:45:19;10.20;94.90
58809;DHT22;44579;51.672;7.834;2023-02-23T04:47:47;10.10;94.90
58809;DHT22;44579;51.672;7.834;2023-02-23T04:50:14;10.10;94.90
58809;DHT22;44579;51.672;7.834;2023-02-23T04:52:40;10.10;94.90
58809;DHT22;44579;51.672;7.834;2023-02-23T04:55:08;10.20;94.90
58809;DHT22;44579;51.672;7.834;2023-02-23T04:57:39;10.10;94.90
58809;DHT22;44579;51.672;7.834;2023-02-23T05:00:06;10.10;94.90
58809;DHT22;44579;51.672;7.834;2023-02-23T05:02:33;10.20;94.90
58809;DHT22;44579;51.672;7.834;2023-02-23T05:05:03;10.10;94.90
58809;DHT22;44579;51.672;7.834;2023-02-23T05:07:30;10.10;94.90
58809;DHT22;44579;51.672;7.834;2023-02-23T05:09:56;10.20;94.90
58809;DHT22;44579;51.672;7.834;2023-02-23T05:12:23;10.20;94.90
58809;DHT22;44579;51.672;7.834;2023-02-23T05:14:50;10.10;94.80
58809;DHT22;44579;51.672;7.834;2023-02-23T05:17:17;10.10;94.80
58809;DHT22;44579;51.672;7.834;2023-02-23T05:19:43;10.20;94.80
58809;DHT22;44579;51.672;7.834;2023-02-23T05:22:12;10.20;94.90
58809;DHT22;44579;51.672;7.834;2023-02-23T05:24:39;10.10;94.80
58809;DHT22;44579;51.672;7.834;2023-02-23T05:27:07;10.10;94.90
58809;DHT22;44579;51.672;7.834;2023-02-23T05:29:34;10.10;95.30
58809;DHT22;44579;51.672;7.834;2023-02-23T05:32:02;10.10;94.90
58809;DHT22;44579;51.672;7.834;2023-02-23T05:34:28;10.10;94.90
58809;DHT22;44579;51.672;7.834;2023-02-23T05:36:55;10.10;94.90
58809;DHT22;44579;51.672;7.834;2023-02-23T05:39:25;10.10;94.90
58809;DHT22;44579;51.672;7.834;2023-02-23T05:41:51;10.10;94.90
58809;DHT22;44579;51.672;7.834;2023-02-23T05:44:18;10.10;94.90
58809;DHT22;44579;51.672;7.834;2023-02-23T05:46:45;10.10;94.90
58809;DHT22;44579;51.672;7.834;2023-02-23T05:49:13;10.10;94.90
58809;DHT22;44579;51.672;7.834;2023-02-23T05:51:40;10.10;94.80
58809;DHT22;44579;51.672;7.834;2023-02-23T05:54:08;10.10;94.80
58809;DHT22;44579;51.672;7.834;2023-02-23T05:56:35;10.10;94.80
58809;DHT22;44579;51.672;7.834;2023-02-23T05:59:02;10.10;94.80
58809;DHT22;44579;51.672;7.834;2023-02-23T06:01:30;10.10;94.80
58809;DHT22;44579;51.672;7.834;2023-02-23T06:03:57;10.10;94.80
58809;DHT22;44579;51.672;7.834;2023-02-23T06:06:23;10.00;94.80
58809;DHT22;44579;51.672;7.834;2023-02-23T06:08:54;10.00;94.80
58809;DHT22;44579;51.672;7.834;2023-02-23T06:11:21;10.00;94.80
58809;DHT22;44579;51.672;7.834;2023-02-23T06:13:48;10.10;94.80
58809;DHT22;44579;51.672;7.834;2023-02-23T06:16:15;10.00;94.80
58809;DHT22;44579;51.672;7.834;2023-02-23T06:18:42;10.00;94.70
58809;DHT22;44579;51.672;7.834;2023-02-23T06:21:09;10.10;94.80
58809;DHT22;44579;51.672;7.834;2023-02-23T06:23:35;10.00;94.70
58809;DHT22;44579;51.672;7.834;2023-02-23T06:26:03;10.00;94.70
58809;DHT22;44579;51.672;7.834;2023-02-23T06:28:33;10.00;94.70
58809;DHT22;44579;51.672;7.834;2023-02-23T06:31:00;10.10;94.80
58809;DHT22;44579;51.672;7.834;2023-02-23T06:33:27;10.00;94.70
58809;DHT22;44579;51.672;7.834;2023-02-23T06:35:55;10.00;94.80
58809;DHT22;44579;51.672;7.834;2023-02-23T06:38:24;10.00;94.80
58809;DHT22;44579;51.672;7.834;2023-02-23T06:40:51;10.00;94.80
58809;DHT22;44579;51.672;7.834;2023-02-23T06:43:18;10.00;94.80
58809;DHT22;44579;51.672;7.834;2023-02-23T06:45:51;10.00;94.80
58809;DHT22;44579;51.672;7.834;2023-02-23T06:48:18;10.00;94.80
58809;DHT22;44579;51.672;7.834;2023-02-23T06:50:46;9.90;94.90
58809;DHT22;44579;51.672;7.834;2023-02-23T06:53:13;9.90;95.00
58809;DHT22;44579;51.672;7.834;2023-02-23T06:55:39;9.90;95.00
58809;DHT22;44579;51.672;7.834;2023-02-23T06:58:19;9.80;95.10
58809;DHT22;44579;51.672;7.834;2023-02-23T07:00:48;9.80;95.20
58809;DHT22;44579;51.672;7.834;2023-02-23T07:03:18;9.70;95.20
58809;DHT22;44579;51.672;7.834;2023-02-23T07:05:45;9.80;95.20
58809;DHT22;44579;51.672;7.834;2023-02-23T07:08:12;9.80;95.20
58809;DHT22;44579;51.672;7.834;2023-02-23T07:10:38;9.80;95.20
58809;DHT22;44579;51.672;7.834;2023-02-23T07:13:07;9.80;95.20
58809;DHT22;44579;51.672;7.834;2023-02-23T07:15:34;9.80;95.10
58809;DHT22;44579;51.672;7.834;2023-02-23T07:18:01;9.80;95.20
58809;DHT22;44579;51.672;7.834;2023-02-23T07:20:31;9.80;95.10
58809;DHT22;44579;51.672;7.834;2023-02-23T07:22:58;9.80;95.10
58809;DHT22;44579;51.672;7.834;2023-02-23T07:25:28;9.80;95.20
58809;DHT22;44579;51.672;7.834;2023-02-23T07:27:55;9.80;95.20
58809;DHT22;44579;51.672;7.834;2023-02-23T07:30:22;9.80;95.20
58809;DHT22;44579;51.672;7.834;2023-02-23T07:32:52;9.80;95.10
58809;DHT22;44579;51.672;7.834;2023-02-23T07:35:19;9.80;95.20
58809;DHT22;44579;51.672;7.834;2023-02-23T07:37:46;9.80;95.20
58809;DHT22;44579;51.672;7.834;2023-02-23T07:40:13;9.80;95.30
58809;DHT22;44579;51.672;7.834;2023-02-23T07:42:39;9.70;95.30
58809;DHT22;44579;51.672;7.834;2023-02-23T07:45:08;9.70;95.30
58809;DHT22;44579;51.672;7.834;2023-02-23T07:47:35;9.70;95.20
58809;DHT22;44579;51.672;7.834;2023-02-23T07:50:02;9.80;95.20
58809;DHT22;44579;51.672;7.834;2023-02-23T07:52:36;9.80;95.20
58809;DHT22;44579;51.672;7.834;2023-02-23T07:55:02;9.80;95.20
58809;DHT22;44579;51.672;7.834;2023-02-23T07:57:32;9.90;95.20
58809;DHT22;44579;51.672;7.834;2023-02-23T07:59:59;9.80;95.10
58809;DHT22;44579;51.672;7.834;2023-02-23T08:02:26;9.80;95.10
58809;DHT22;44579;51.672;7.834;2023-02-23T08:04:58;9.80;95.20
58809;DHT22;44579;51.672;7.834;2023-02-23T08:07:25;9.80;95.20
58809;DHT22;44579;51.672;7.834;2023-02-23T08:09:52;9.80;95.20
58809;DHT22;44579;51.672;7.834;2023-02-23T08:12:19;9.80;95.20
58809;DHT22;44579;51.672;7.834;2023-02-23T08:14:45;9.80;95.20
58809;DHT22;44579;51.672;7.834;2023-02-23T08:17:12;9.80;95.20
58809;DHT22;44579;51.672;7.834;2023-02-23T08:19:39;9.80;95.20
58809;DHT22;44579;51.672;7.834;2023-02-23T08:22:05;9.80;95.20
58809;DHT22;44579;51.672;7.834;2023-02-23T08:24:35;9.80;95.20
58809;DHT22;44579;51.672;7.834;2023-02-23T08:27:02;9.80;95.20
58809;DHT22;44579;51.672;7.834;2023-02-23T08:29:29;9.80;95.30
58809;DHT22;44579;51.672;7.834;2023-02-23T08:31:56;9.80;95.30
58809;DHT22;44579;51.672;7.834;2023-02-23T08:34:23;9.90;95.30
58809;DHT22;44579;51.672;7.834;2023-02-23T08:36:50;9.90;95.40
58809;DHT22;44579;51.672;7.834;2023-02-23T08:39:17;9.80;95.50
58809;DHT22;44579;51.672;7.834;2023-02-23T08:41:44;9.80;95.50
58809;DHT22;44579;51.672;7.834;2023-02-23T08:44:11;9.80;95.90
58809;DHT22;44579;51.672;7.834;2023-02-23T08:46:37;9.80;95.60
58809;DHT22;44579;51.672;7.834;2023-02-23T08:49:04;9.80;95.50
58809;DHT22;44579;51.672;7.834;2023-02-23T08:51:31;9.90;95.50
58809;DHT22;44579;51.672;7.834;2023-02-23T08:54:00;9.80;95.50
58809;DHT22;44579;51.672;7.834;2023-02-23T08:56:27;9.90;96.00
58809;DHT22;44579;51.672;7.834;2023-02-23T08:58:54;9.80;95.60
58809;DHT22;44579;51.672;7.834;2023-02-23T09:01:21;9.80;95.70
58809;DHT22;44579;51.672;7.834;2023-02-23T09:03:48;9.80;95.80
58809;DHT22;44579;51.672;7.834;2023-02-23T09:06:17;9.80;95.70
58809;DHT22;44579;51.672;7.834;2023-02-23T09:08:44;9.80;95.60
58809;DHT22;44579;51.672;7.834;2023-02-23T09:11:11;9.80;95.60
58809;DHT22;44579;51.672;7.834;2023-02-23T09:13:38;9.90;95.60
58809;DHT22;44579;51.672;7.834;2023-02-23T09:16:04;9.90;95.60
58809;DHT22;44579;51.672;7.834;2023-02-23T09:18:33;9.90;95.50
58809;DHT22;44579;51.672;7.834;2023-02-23T09:21:01;9.90;95.60
58809;DHT22;44579;51.672;7.834;2023-02-23T09:23:32;9.90;95.50
58809;DHT22;44579;51.672;7.834;2023-02-23T09:26:06;9.90;95.50
58809;DHT22;44579;51.672;7.834;2023-02-23T09:28:33;9.90;95.50
58809;DHT22;44579;51.672;7.834;2023-02-23T09:31:07;10.00;95.40
58809;DHT22;44579;51.672;7.834;2023-02-23T09:33:35;10.00;95.40
58809;DHT22;44579;51.672;7.834;2023-02-23T09:36:15;10.00;95.40
58809;DHT22;44579;51.672;7.834;2023-02-23T09:38:42;10.00;95.40
58809;DHT22;44579;51.672;7.834;2023-02-23T09:49:04;10.00;95.40
58809;DHT22;44579;51.672;7.834;2023-02-23T09:51:35;9.90;95.40
58809;DHT22;44579;51.672;7.834;2023-02-23T09:54:03;9.90;95.40
58809;DHT22;44579;51.672;7.834;2023-02-23T09:56:35;10.00;95.40
58809;DHT22;44579;51.672;7.834;2023-02-23T09:59:09;10.00;95.40
58809;DHT22;44579;51.672;7.834;2023-02-23T10:06:41;10.10;95.40
58809;DHT22;44579;51.672;7.834;2023-02-23T10:11:48;10.10;95.30
58809;DHT22;44579;51.672;7.834;2023-02-23T10:17:02;10.20;95.40
58809;DHT22;44579;51.672;7.834;2023-02-23T10:22:07;10.30;95.50
58809;DHT22;44579;51.672;7.834;2023-02-23T10:24:40;10.40;95.40
58809;DHT22;44579;51.672;7.834;2023-02-23T10:29:42;10.40;95.30
58809;DHT22;44579;51.672;7.834;2023-02-23T10:34:57;10.40;95.20
58809;DHT22;44579;51.672;7.834;2023-02-23T10:37:25;10.40;95.20
58809;DHT22;44579;51.672;7.834;2023-02-23T10:39:51;10.40;95.20
58809;DHT22;44579;51.672;7.834;2023-02-23T10:42:25;10.40;95.30
58809;DHT22;44579;51.672;7.834;2023-02-23T10:44:54;10.40;95.30
58809;DHT22;44579;51.672;7.834;2023-02-23T10:47:22;10.40;95.30
58809;DHT22;44579;51.672;7.834;2023-02-23T10:49:52;10.50;95.30
58809;DHT22;44579;51.672;7.834;2023-02-23T10:52:28;10.50;95.30
58809;DHT22;44579;51.672;7.834;2023-02-23T10:54:58;10.40;95.20
58809;DHT22;44579;51.672;7.834;2023-02-23T11:00:01;10.30;95.40
58809;DHT22;44579;51.672;7.834;2023-02-23T11:02:29;10.30;95.40
58809;DHT22;44579;51.672;7.834;2023-02-23T11:04:59;10.30;95.40
58809;DHT22;44579;51.672;7.834;2023-02-23T11:07:27;10.30;95.40
58809;DHT22;44579;51.672;7.834;2023-02-23T11:09:55;10.30;95.40
58809;DHT22;44579;51.672;7.834;2023-02-23T11:12:23;10.40;95.40
58809;DHT22;44579;51.672;7.834;2023-02-23T11:14:52;10.40;95.40
58809;DHT22;44579;51.672;7.834;2023-02-23T11:17:38;10.40;95.40
58809;DHT22;44579;51.672;7.834;2023-02-23T11:22:44;10.50;95.40
58809;DHT22;44579;51.672;7.834;2023-02-23T11:25:32;10.60;95.50
58809;DHT22;44579;51.672;7.834;2023-02-23T11:27:58;10.70;95.40
58809;DHT22;44579;51.672;7.834;2023-02-23T11:30:34;10.70;95.20
58809;DHT22;44579;51.672;7.834;2023-02-23T11:33:12;10.70;95.30
58809;DHT22;44579;51.672;7.834;2023-02-23T11:35:41;10.70;95.20
58809;DHT22;44579;51.672;7.834;2023-02-23T11:41:00;10.80;95.20
58809;DHT22;44579;51.672;7.834;2023-02-23T11:43:28;10.80;95.20
58809;DHT22;44579;51.672;7.834;2023-02-23T11:45:55;10.80;95.30
58809;DHT22;44579;51.672;7.834;2023-02-23T11:48:27;10.80;95.30
58809;DHT22;44579;51.672;7.834;2023-02-23T11:50:55;10.70;95.20
58809;DHT22;44579;51.672;7.834;2023-02-23T11:53:44;10.70;95.30
58809;DHT22;44579;51.672;7.834;2023-02-23T11:56:09;10.70;95.40
58809;DHT22;44579;51.672;7.834;2023-02-23T11:58:46;10.60;95.30
58809;DHT22;44579;51.672;7.834;2023-02-23T12:01:15;10.60;95.30
58809;DHT22;44579;51.672;7.834;2023-02-23T12:03:47;10.60;95.30
58809;DHT22;44579;51.672;7.834;2023-02-23T12:06:31;10.60;95.20
58809;DHT22;44579;51.672;7.834;2023-02-23T12:09:02;10.40;95.00
58809;DHT22;44579;51.672;7.834;2023-02-23T12:11:31;10.30;95.30
58809;DHT22;44579;51.672;7.834;2023-02-23T12:14:04;10.20;95.30
58809;DHT22;44579;51.672;7.834;2023-02-23T12:16:42;10.10;95.30
58809;DHT22;44579;51.672;7.834;2023-02-23T12:19:33;10.10;95.40
58809;DHT22;44579;51.672;7.834;2023-02-23T12:24:39;10.10;95.30
58809;DHT22;44579;51.672;7.834;2023-02-23T12:27:09;10.10;95.30
58809;DHT22;44579;51.672;7.834;2023-02-23T12:29:50;10.10;95.20
58809;DHT22;44579;51.672;7.834;2023-02-23T12:32:22;10.00;95.20
58809;DHT22;44579;51.672;7.834;2023-02-23T12:37:19;9.90;95.10
58809;DHT22;44579;51.672;7.834;2023-02-23T12:39:55;9.80;95.20
58809;DHT22;44579;51.672;7.834;2023-02-23T12:42:38;9.70;95.40
58809;DHT22;44579;51.672;7.834;2023-02-23T12:45:06;9.70;95.40
58809;DHT22;44579;51.672;7.834;2023-02-23T12:47:40;9.70;95.30
58809;DHT22;44579;51.672;7.834;2023-02-23T12:50:10;9.70;95.20
58809;DHT22;44579;51.672;7.834;2023-02-23T12:52:50;9.70;95.20
58809;DHT22;44579;51.672;7.834;2023-02-23T12:58:17;9.70;95.30
58809;DHT22;44579;51.672;7.834;2023-02-23T13:00:50;9.70;95.30
58809;DHT22;44579;51.672;7.834;2023-02-23T13:03:24;9.80;95.20
58809;DHT22;44579;51.672;7.834;2023-02-23T13:06:03;9.70;95.00
58809;DHT22;44579;51.672;7.834;2023-02-23T13:08:39;9.70;95.00
58809;DHT22;44579;51.672;7.834;2023-02-23T13:14:11;9.70;95.00
58809;DHT22;44579;51.672;7.834;2023-02-23T13:16:54;9.70;95.00
58809;DHT22;44579;51.672;7.834;2023-02-23T13:19:24;9.70;94.90
58809;DHT22;44579;51.672;7.834;2023-02-23T13:24:38;9.70;94.90
58809;DHT22;44579;51.672;7.834;2023-02-23T13:32:09;9.70;94.70
58809;DHT22;44579;51.672;7.834;2023-02-23T13:34:41;9.60;94.80
58809;DHT22;44579;51.672;7.834;2023-02-23T13:37:09;9.60;94.80
58809;DHT22;44579;51.672;7.834;2023-02-23T13:39:42;9.50;94.80
58809;DHT22;44579;51.672;7.834;2023-02-23T13:50:15;9.50;94.70
58809;DHT22;44579;51.672;7.834;2023-02-23T13:52:43;9.60;94.70
58809;DHT22;44579;51.672;7.834;2023-02-23T13:58:16;9.50;94.60
58809;DHT22;44579;51.672;7.834;2023-02-23T14:00:48;9.60;94.60
58809;DHT22;44579;51.672;7.834;2023-02-23T14:03:20;9.50;94.60
58809;DHT22;44579;51.672;7.834;2023-02-23T14:05:48;9.60;94.60
58809;DHT22;44579;51.672;7.834;2023-02-23T14:08:20;9.50;94.60
58809;DHT22;44579;51.672;7.834;2023-02-23T14:10:47;9.50;94.60
58809;DHT22;44579;51.672;7.834;2023-02-23T14:25:51;9.30;94.60
58809;DHT22;44579;51.672;7.834;2023-02-23T14:28:25;9.20;94.70
58809;DHT22;44579;51.672;7.834;2023-02-23T14:31:04;9.20;94.70
58809;DHT22;44579;51.672;7.834;2023-02-23T14:44:13;9.30;94.50
58809;DHT22;44579;51.672;7.834;2023-02-23T14:47:10;9.30;94.50
58809;DHT22;44579;51.672;7.834;2023-02-23T14:49:40;9.30;94.50
58809;DHT22;44579;51.672;7.834;2023-02-23T14:52:21;9.30;94.60
58809;DHT22;44579;51.672;7.834;2023-02-23T14:54:50;9.20;94.50
58809;DHT22;44579;51.672;7.834;2023-02-23T14:59:56;9.30;94.50
58809;DHT22;44579;51.672;7.834;2023-02-23T15:02:24;9.20;94.40
58809;DHT22;44579;51.672;7.834;2023-02-23T15:04:51;9.10;94.40
58809;DHT22;44579;51.672;7.834;2023-02-23T15:07:31;9.00;94.70
58809;DHT22;44579;51.672;7.834;2023-02-23T15:10:01;8.90;94.90
58809;DHT22;44579;51.672;7.834;2023-02-23T15:12:33;8.80;95.00
58809;DHT22;44579;51.672;7.834;2023-02-23T15:15:02;8.70;95.20
58809;DHT22;44579;51.672;7.834;2023-02-23T15:17:30;8.60;95.30
58809;DHT22;44579;51.672;7.834;2023-02-23T15:19:59;8.60;95.40
58809;DHT22;44579;51.672;7.834;2023-02-23T15:22:41;8.60;95.40
58809;DHT22;44579;51.672;7.834;2023-02-23T15:25:15;8.70;95.50
58809;DHT22;44579;51.672;7.834;2023-02-23T15:27:43;8.70;95.40
58809;DHT22;44579;51.672;7.834;2023-02-23T15:30:18;8.80;95.20
58809;DHT22;44579;51.672;7.834;2023-02-23T15:32:45;8.80;95.20
58809;DHT22;44579;51.672;7.834;2023-02-23T15:35:12;8.80;95.20
58809;DHT22;44579;51.672;7.834;2023-02-23T15:37:46;8.80;95.20
58809;DHT22;44579;51.672;7.834;2023-02-23T15:40:31;8.80;95.10
58809;DHT22;44579;51.672;7.834;2023-02-23T15:42:58;8.90;95.10
58809;DHT22;44579;51.672;7.834;2023-02-23T15:45:31;8.90;95.00
58809;DHT22;44579;51.672;7.834;2023-02-23T15:48:01;8.90;94.90
58809;DHT22;44579;51.672;7.834;2023-02-23T15:50:30;8.90;95.00
58809;DHT22;44579;51.672;7.834;2023-02-23T15:53:07;8.90;95.00
58809;DHT22;44579;51.672;7.834;2023-02-23T15:55:41;9.00;95.00
58809;DHT22;44579;51.672;7.834;2023-02-23T15:58:12;9.00;94.90
58809;DHT22;44579;51.672;7.834;2023-02-23T16:00:54;9.00;94.80
58809;DHT22;44579;51.672;7.834;2023-02-23T16:03:22;9.10;94.80
58809;DHT22;44579;51.672;7.834;2023-02-23T16:05:54;9.10;94.70
58809;DHT22;44579;51.672;7.834;2023-02-23T16:08:24;9.10;94.60
58809;DHT22;44579;51.672;7.834;2023-02-23T16:10:52;9.10;94.60
58809;DHT22;44579;51.672;7.834;2023-02-23T16:13:21;9.10;94.60
58809;DHT22;44579;51.672;7.834;2023-02-23T16:15:48;9.10;94.60
58809;DHT22;44579;51.672;7.834;2023-02-23T16:18:19;9.10;94.70
58809;DHT22;44579;51.672;7.834;2023-02-23T16:20:50;9.10;94.70
58809;DHT22;44579;51.672;7.834;2023-02-23T16:23:23;9.10;94.70
58809;DHT22;44579;51.672;7.834;2023-02-23T16:28:35;9.20;94.60
58809;DHT22;44579;51.672;7.834;2023-02-23T16:31:07;9.10;94.60
58809;DHT22;44579;51.672;7.834;2023-02-23T16:33:41;9.10;94.50
58809;DHT22;44579;51.672;7.834;2023-02-23T16:38:37;9.20;94.60
58809;DHT22;44579;51.672;7.834;2023-02-23T16:41:20;9.20;94.60
58809;DHT22;44579;51.672;7.834;2023-02-23T16:43:48;9.10;94.50
58809;DHT22;44579;51.672;7.834;2023-02-23T16:46:15;9.10;94.70
58809;DHT22;44579;51.672;7.834;2023-02-23T16:48:44;9.00;94.70
58809;DHT22;44579;51.672;7.834;2023-02-23T16:51:12;9.00;94.60
58809;DHT22;44579;51.672;7.834;2023-02-23T16:53:40;9.00;94.70
58809;DHT22;44579;51.672;7.834;2023-02-23T16:56:07;8.90;94.80
58809;DHT22;44579;51.672;7.834;2023-02-23T16:58:38;8.90;94.90
58809;DHT22;44579;51.672;7.834;2023-02-23T17:01:05;8.90;95.00
58809;DHT22;44579;51.672;7.834;2023-02-23T17:03:32;8.90;94.90
58809;DHT22;44579;51.672;7.834;2023-02-23T17:06:04;8.90;95.30
58809;DHT22;44579;51.672;7.834;2023-02-23T17:08:31;8.90;94.90
58809;DHT22;44579;51.672;7.834;2023-02-23T17:11:00;8.90;94.80
58809;DHT22;44579;51.672;7.834;2023-02-23T17:13:27;8.90;94.80
58809;DHT22;44579;51.672;7.834;2023-02-23T17:16:02;8.90;94.70
58809;DHT22;44579;51.672;7.834;2023-02-23T17:19:26;8.90;94.80
58809;DHT22;44579;51.672;7.834;2023-02-23T17:22:18;8.80;94.90
58809;DHT22;44579;51.672;7.834;2023-02-23T17:24:45;8.80;95.00
58809;DHT22;44579;51.672;7.834;2023-02-23T17:27:12;8.70;95.00
58809;DHT22;44579;51.672;7.834;2023-02-23T17:29:39;8.70;95.10
58809;DHT22;44579;51.672;7.834;2023-02-23T17:35:00;8.60;95.10
58809;DHT22;44579;51.672;7.834;2023-02-23T17:37:46;8.60;95.10
58809;DHT22;44579;51.672;7.834;2023-02-23T17:40:23;8.60;95.10
58809;DHT22;44579;51.672;7.834;2023-02-23T17:46:07;8.60;95.20
58809;DHT22;44579;51.672;7.834;2023-02-23T17:51:29;8.60;95.10
58809;DHT22;44579;51.672;7.834;2023-02-23T17:53:56;8.60;95.10
58809;DHT22;44579;51.672;7.834;2023-02-23T17:56:23;8.60;95.20
58809;DHT22;44579;51.672;7.834;2023-02-23T17:58:52;8.60;95.20
58809;DHT22;44579;51.672;7.834;2023-02-23T18:01:19;8.60;95.20
58809;DHT22;44579;51.672;7.834;2023-02-23T18:03:48;8.60;95.10
58809;DHT22;44579;51.672;7.834;2023-02-23T18:06:16;8.70;95.00
58809;DHT22;44579;51.672;7.834;2023-02-23T18:08:43;8.70;95.00
58809;DHT22;44579;51.672;7.834;2023-02-23T18:11:11;8.70;94.90
58809;DHT22;44579;51.672;7.834;2023-02-23T18:13:55;8.80;94.90
58809;DHT22;44579;51.672;7.834;2023-02-23T18:16:25;8.80;94.80